Data for 12/20/2015

Time Sea-Level Adjusted Pressure Absolute Pressure Temperature Relative Humidity Dew Point   
(mb) (inHg) (mb) (inHg) (C) (F) (%) (C) (F)
00:05 1012 29.88 841 24.83 -2 28.4 95 -2.8 27
00:10 1012 29.88 841 24.83 -1.9 28.5 94 -2.7 27.1
00:15 1012 29.88 841 24.83 -1.9 28.6 94 -2.7 27.2
00:20 1012 29.88 841 24.83 -1.8 28.7 94 -2.7 27.2
00:25 1012 29.88 841 24.83 -1.8 28.8 94 -2.7 27.1
00:30 1012 29.88 841 24.83 -1.8 28.7 93 -2.8 27
00:35 1012 29.88 841 24.83 -1.8 28.7 93 -2.8 27
00:40 1012 29.88 841 24.83 -1.8 28.8 93 -2.8 27
00:45 1012 29.88 841 24.83 -1.8 28.8 92 -2.9 26.9
00:50 1012 29.88 841 24.83 -1.7 28.9 92 -2.9 26.8
00:55 1012 29.88 841 24.83 -1.8 28.8 91 -3 26.6
01:00 1012 29.88 841 24.83 -1.8 28.8 91 -3.1 26.4
01:05 1012 29.88 841 24.83 -1.7 28.9 91 -3.1 26.5
01:10 1012 29.88 841 24.83 -1.7 29 90 -3.1 26.5
01:15 1012 29.88 841 24.83 -1.7 29 90 -3.2 26.3
01:20 1012 29.88 841 24.83 -1.7 28.9 89 -3.3 26.1
01:25 1012 29.88 841 24.83 -1.7 28.9 89 -3.3 26.1
01:30 1012 29.88 841 24.83 -1.8 28.8 89 -3.3 26
01:35 1012 29.88 841 24.83 -1.8 28.7 89 -3.4 25.9
01:40 1012 29.88 841 24.83 -1.9 28.6 90 -3.4 25.9
01:45 1012 29.88 841 24.83 -1.8 28.7 88 -3.6 25.5
01:50 1012 29.88 841 24.83 -1.7 28.9 87 -3.6 25.5
01:55 1012 29.88 841 24.83 -1.6 29 85 -3.8 25.1
02:00 1012 29.88 841 24.83 -1.6 29.1 86 -3.7 25.3
02:05 1012 29.88 841 24.83 -1.6 29.1 85 -3.8 25.2
02:10 1012 29.88 841 24.83 -1.7 29 85 -3.9 25.1
02:15 1012 29.88 841 24.83 -1.7 28.9 84 -4 24.8
02:20 1012 29.88 841 24.83 -1.7 28.9 84 -4 24.7
02:25 1012 29.88 841 24.83 -1.6 29.1 83 -4.1 24.7
02:30 1012 29.88 841 24.83 -1.6 29.1 83 -4.1 24.6
02:35 1012 29.88 841 24.83 -1.6 29.2 82 -4.2 24.5
02:40 1012 29.88 841 24.83 -1.6 29.2 83 -4.1 24.6
02:45 1012 29.88 841 24.83 -1.6 29 83 -4.1 24.6
02:50 1012 29.88 841 24.83 -1.7 28.9 84 -4.1 24.6
02:55 1012 29.88 841 24.83 -1.8 28.7 84 -4.2 24.4
03:00 1012 29.88 841 24.83 -1.9 28.6 86 -3.9 25.1
03:05 1012 29.88 841 24.83 -2.1 28.2 89 -3.7 25.4
03:10 1012 29.88 841 24.83 -2.3 27.9 91 -3.6 25.5
03:15 1012 29.88 841 24.83 -2.4 27.7 91 -3.6 25.5
03:20 1012 29.88 841 24.83 -2.4 27.6 92 -3.6 25.5
03:25 1012 29.88 841 24.83 -2.4 27.6 92 -3.6 25.6
03:30 1012 29.88 841 24.83 -2.4 27.7 92 -3.5 25.7
03:35 1012 29.88 841 24.83 -2.4 27.7 92 -3.6 25.6
03:40 1012 29.88 841 24.83 -2.4 27.8 91 -3.6 25.6
03:45 1012 29.88 841 24.83 -2.3 27.9 90 -3.6 25.4
03:50 1012 29.88 841 24.83 -2.2 28.1 90 -3.7 25.4
03:55 1012 29.88 841 24.83 -2.1 28.2 88 -3.8 25.2
04:00 1012 29.88 841 24.83 -2.2 28.1 88 -3.9 25
04:05 1012 29.88 841 24.83 -2.3 27.8 89 -4 24.9
04:10 1012 29.88 841 24.83 -2.4 27.7 89 -4 24.8
04:15 1012 29.88 841 24.83 -2.5 27.5 88 -4.3 24.3
04:20 1012 29.88 841 24.83 -2.8 26.9 89 -4.5 24
04:25 1012 29.88 841 24.83 -3.1 26.5 89 -4.6 23.8
04:30 1012 29.88 841 24.83 -3.2 26.2 87 -5.1 22.9
04:35 1012 29.88 841 24.83 -3.4 25.9 85 -5.6 22
04:40 1012 29.88 841 24.83 -3.5 25.8 83 -5.9 21.4
04:45 1012 29.88 841 24.83 -3.5 25.7 81 -6.2 20.8
04:50 1012 29.88 841 24.83 -3.8 25.1 84 -6.1 21
04:55 1012 29.88 841 24.83 -3.9 25 83 -6.3 20.7
05:00 1012 29.88 841 24.83 -3.8 25.2 82 -6.5 20.4
05:05 1012 29.88 841 24.83 -3.8 25.2 82 -6.4 20.4
05:10 1012 29.88 841 24.83 -3.7 25.4 81 -6.4 20.4
05:15 1012 29.88 841 24.83 -3.8 25.2 82 -6.4 20.5
05:20 1012 29.88 841 24.83 -3.9 25 82 -6.5 20.2
05:25 1012 29.88 841 24.83 -4.2 24.4 82 -6.8 19.8
05:30 1012 29.88 841 24.83 -4.4 24.1 83 -6.9 19.6
05:35 1012 29.88 841 24.83 -4.4 24 83 -7 19.5
05:40 1012 29.88 841 24.83 -4.6 23.6 85 -6.7 19.9
05:45 1012 29.88 841 24.83 -4.4 24 86 -6.5 20.3
05:50 1012 29.88 841 24.83 -4.3 24.3 85 -6.4 20.5
05:55 1012 29.88 841 24.83 -4.3 24.3 86 -6.3 20.6
06:00 1012 29.88 841 24.83 -4.2 24.5 85 -6.3 20.7
06:05 1012 29.88 841 24.83 -4 24.9 85 -6.1 21.1
06:10 1012 29.88 841 24.83 -3.8 25.2 85 -6 21.3
06:15 1012 29.88 841 24.83 -3.6 25.5 85 -5.7 21.7
06:20 1012 29.88 841 24.83 -3.6 25.6 85 -5.7 21.8
06:25 1012 29.88 841 24.83 -3.5 25.6 85 -5.7 21.8
06:30 1012 29.88 841 24.83 -3.6 25.5 85 -5.7 21.7
06:35 1012 29.88 841 24.83 -3.8 25.1 85 -5.9 21.3
06:40 1012 29.88 841 24.83 -4 24.7 87 -5.9 21.4
06:45 1012 29.88 841 24.83 -4.2 24.4 88 -5.9 21.3
06:50 1012 29.88 841 24.83 -4.4 24.1 89 -6 21.3
06:55 1012 29.88 841 24.83 -4.5 23.9 89 -6.1 21.1
07:00 1012 29.88 841 24.83 -4.5 23.8 90 -5.9 21.3
07:05 1012 29.88 841 24.83 -4.4 24 91 -5.7 21.7
07:10 1012 29.88 841 24.83 -4.3 24.3 91 -5.5 22.1
07:15 1012 29.88 841 24.83 -4.2 24.4 91 -5.4 22.2
07:20 1012 29.88 841 24.83 -4.1 24.5 91 -5.3 22.4
07:25 1012 29.88 841 24.83 -4.2 24.5 91 -5.4 22.2
07:30 1012 29.88 841 24.83 -4.3 24.2 90 -5.7 21.8
07:35 1012 29.88 841 24.83 -4.5 23.9 90 -5.8 21.5
07:40 1012 29.88 841 24.83 -4.4 24.1 91 -5.6 21.9
07:45 1012 29.88 841 24.83 -4.4 24.1 93 -5.3 22.4
07:50 1012 29.88 841 24.83 -4.4 24.1 94 -5.2 22.6
07:55 1012 29.88 841 24.83 -4.4 24.1 94 -5.2 22.6
08:00 1012 29.88 841 24.83 -4.4 24.1 94 -5.2 22.7
08:05 1012 29.88 841 24.83 -4.4 24.1 94 -5.2 22.6
08:10 1012 29.88 841 24.83 -4.5 23.9 94 -5.3 22.5
08:15 1012 29.88 841 24.83 -4.5 23.9 94 -5.3 22.5
08:20 1012 29.88 841 24.83 -4.4 24.1 94 -5.2 22.7
08:25 1012 29.88 841 24.83 -4.3 24.3 94 -5.1 22.8
08:30 1012 29.88 841 24.83 -4.4 24.1 94 -5.2 22.6
08:35 1012 29.88 841 24.83 -4.5 23.9 94 -5.3 22.5
08:40 1012 29.88 841 24.83 -4.5 23.8 94 -5.4 22.3
08:45 1012 29.88 841 24.83 -4.6 23.7 94 -5.4 22.2
08:50 1012 29.88 841 24.83 -4.6 23.7 94 -5.5 22.1
08:55 1012 29.88 841 24.83 -4.8 23.4 93 -5.7 21.7
09:00 1012 29.88 841 24.83 -5 23 93 -5.9 21.3
09:05 1012 29.88 841 24.83 -5.2 22.7 94 -6 21.1
09:10 1012 29.88 841 24.83 -5.1 22.9 94 -5.9 21.4
09:15 1012 29.88 841 24.83 -4.9 23.1 94 -5.8 21.6
09:20 1012 29.88 841 24.83 -4.8 23.3 94 -5.7 21.7
09:25 1012 29.88 841 24.83 -4.9 23.2 94 -5.8 21.6
09:30 1012 29.88 841 24.83 -4.9 23.1 94 -5.8 21.6
09:35 1012 29.88 841 24.83 -4.9 23.3 94 -5.7 21.7
09:40 1012 29.88 841 24.83 -4.8 23.4 94 -5.7 21.8
09:45 1012 29.88 841 24.83 -4.9 23.3 93 -5.8 21.6
09:50 1012 29.88 841 24.83 -4.9 23.2 94 -5.8 21.6
09:55 1012 29.88 841 24.83 -5 23.1 93 -5.9 21.5
10:00 1012 29.88 841 24.83 -4.9 23.1 93 -5.9 21.4
10:05 1012 29.88 841 24.83 -5.1 22.8 93 -6.1 21.1
10:10 1012 29.88 841 24.83 -5.1 22.8 94 -6 21.3
10:15 1012 29.88 841 24.83 -4.9 23.2 94 -5.7 21.7
10:20 1012 29.88 841 24.83 -4.6 23.7 94 -5.5 22.2
10:25 1012 29.88 841 24.83 -4.4 24 94 -5.2 22.6
10:30 1012 29.88 841 24.83 -4.3 24.3 94 -5.1 22.8
10:35 1012 29.88 841 24.83 -4.3 24.2 93 -5.2 22.6
10:40 1012 29.88 841 24.83 -4.5 24 94 -5.4 22.4
10:45 1012 29.88 841 24.83 -4.5 23.9 94 -5.4 22.3
10:50 1012 29.88 841 24.83 -4.4 24.1 94 -5.3 22.5
10:55 1012 29.88 841 24.83 -4.3 24.3 93 -5.2 22.6
11:00 1012 29.88 841 24.83 -4.2 24.4 93 -5.2 22.7
11:05 1012 29.88 841 24.83 -4.2 24.4 92 -5.3 22.4
11:10 1012 29.88 841 24.83 -4.6 23.7 91 -5.9 21.4
11:15 1012 29.88 841 24.83 -4.8 23.3 90 -6.2 20.9
11:20 1012 29.88 841 24.83 -4.9 23.3 91 -6.2 20.9
11:25 1012 29.88 841 24.83 -4.7 23.5 91 -6 21.2
11:30 1012 29.88 841 24.83 -4.4 24 91 -5.7 21.8
11:35 1012 29.88 841 24.83 -4.1 24.7 89 -5.6 22
11:40 1012 29.88 841 24.83 -3.9 25 90 -5.3 22.4
11:45 1012 29.88 841 24.83 -3.5 25.8 90 -4.9 23.1
11:50 1012 29.88 841 24.83 -2.7 27.1 88 -4.5 24
11:55 1012 29.88 841 24.83 -2.3 27.9 85 -4.4 24
12:00 1012 29.88 841 24.83 -2.1 28.2 85 -4.3 24.2
12:05 1012 29.88 841 24.83 -1.8 28.7 84 -4.2 24.5
12:10 1012 29.88 841 24.83 -1.6 29.1 83 -4.1 24.6
12:15 1012 29.88 841 24.83 -1.6 29.1 80 -4.6 23.8
12:20 1012 29.88 841 24.83 -2.5 27.4 86 -4.6 23.8
12:25 1012 29.88 841 24.83 -2.9 26.7 86 -4.9 23.2
12:30 1012 29.88 841 24.83 -3.3 26.1 87 -5.1 22.7
12:35 1012 29.88 841 24.83 -3.5 25.7 88 -5.1 22.7
12:40 1012 29.88 841 24.83 -3.6 25.6 88 -5.3 22.5
12:45 1011 29.85 841 24.83 -3.8 25.1 90 -5.3 22.5
12:50 1011 29.85 841 24.83 -3.6 25.6 89 -5.1 22.8
12:55 1011 29.85 840 24.81 -3.6 25.6 88 -5.2 22.6
13:00 1011 29.85 840 24.81 -3.7 25.4 90 -5.1 22.8
13:05 1011 29.85 840 24.81 -3.4 25.8 89 -5 23
13:10 1011 29.85 840 24.81 -3.3 26.1 88 -5 22.9
13:15 1011 29.85 840 24.81 -3.5 25.8 89 -5 22.9
13:20 1011 29.85 840 24.81 -3.3 26.1 89 -4.9 23.3
13:25 1011 29.85 840 24.81 -3 26.7 86 -5 23
13:30 1011 29.85 840 24.81 -3.1 26.5 87 -5 23.1
13:35 1011 29.85 840 24.81 -3.1 26.4 87 -5 23
13:40 1010 29.83 840 24.81 -3.1 26.4 87 -5 23
13:45 1010 29.83 840 24.81 -3.6 25.5 88 -5.2 22.6
13:50 1010 29.83 839 24.78 -3.4 25.9 89 -5 23
13:55 1010 29.83 839 24.78 -2.5 27.5 86 -4.5 23.8
14:00 1010 29.83 839 24.78 -2.1 28.1 84 -4.5 23.9
14:05 1010 29.83 839 24.78 -2.3 27.9 84 -4.6 23.7
14:10 1010 29.83 839 24.78 -2.2 28 83 -4.7 23.5
14:15 1010 29.83 839 24.78 -2.4 27.6 83 -4.9 23.2
14:20 1010 29.83 839 24.78 -3.1 26.4 87 -5 23
14:25 1010 29.83 839 24.78 -3.2 26.2 87 -5.2 22.7
14:30 1010 29.83 839 24.78 -3.5 25.7 88 -5.2 22.6
14:35 1010 29.83 839 24.78 -3.8 25.1 90 -5.2 22.6
14:40 1010 29.83 839 24.78 -4 24.7 91 -5.3 22.5
14:45 1010 29.83 839 24.78 -3.9 24.9 92 -5 23
14:50 1010 29.83 839 24.78 -3.6 25.5 92 -4.8 23.4
14:55 1010 29.83 839 24.78 -3.8 25.2 90 -5.2 22.7
15:00 1010 29.83 839 24.78 -4.2 24.4 91 -5.5 22.1
15:05 1010 29.83 839 24.78 -4.1 24.6 92 -5.2 22.6
15:10 1010 29.83 839 24.78 -3.9 25 91 -5.1 22.7
15:15 1010 29.83 839 24.78 -3.9 25 92 -5 22.9
15:20 1010 29.83 839 24.78 -3.6 25.5 91 -4.9 23.2
15:25 1010 29.83 839 24.78 -3.6 25.6 90 -4.9 23.1
15:30 1010 29.83 839 24.78 -3.5 25.8 89 -5 23
15:35 1010 29.83 839 24.78 -3.5 25.7 90 -4.9 23.1
15:40 1009 29.8 839 24.78 -3.4 25.9 89 -5 23
15:45 1009 29.8 839 24.78 -3.3 26 89 -4.9 23.2
15:50 1009 29.8 839 24.78 -3.2 26.2 87 -5.1 22.9
15:55 1009 29.8 839 24.78 -3.5 25.7 89 -5.1 22.9
16:00 1009 29.8 839 24.78 -3.4 25.8 88 -5.1 22.8
16:05 1009 29.8 839 24.78 -3.4 25.8 88 -5.1 22.8
16:10 1009 29.8 839 24.78 -3.6 25.5 89 -5.2 22.6
16:15 1009 29.8 839 24.78 -3.7 25.4 89 -5.3 22.4
16:20 1009 29.8 839 24.78 -3.9 25 89 -5.4 22.3
16:25 1009 29.8 839 24.78 -4.2 24.4 90 -5.7 21.8
16:30 1009 29.8 839 24.78 -4.6 23.7 90 -6 21.1
16:35 1009 29.8 839 24.78 -5 22.9 92 -6.1 21
16:40 1009 29.8 839 24.78 -5 23 93 -6 21.2
16:45 1009 29.8 839 24.78 -5 22.9 93 -6.1 21.1
16:50 1009 29.8 839 24.78 -5.1 22.8 93 -6.1 21
16:55 1009 29.8 839 24.78 -5.1 22.9 93 -6 21.2
17:00 1009 29.8 839 24.78 -4.9 23.2 93 -5.8 21.5
17:05 1009 29.8 839 24.78 -4.9 23.2 93 -5.9 21.5
17:10 1009 29.8 839 24.78 -5.1 22.9 93 -6 21.2
17:15 1009 29.8 838 24.75 -5 22.9 94 -5.9 21.4
17:20 1009 29.8 838 24.75 -5.1 22.8 93 -6.1 21.1
17:25 1009 29.8 838 24.75 -5.4 22.4 94 -6.2 20.8
17:30 1009 29.8 838 24.75 -5.4 22.2 94 -6.3 20.6
17:35 1009 29.8 838 24.75 -5.6 21.8 93 -6.6 20.2
17:40 1009 29.8 838 24.75 -5.8 21.6 94 -6.7 20
17:45 1009 29.8 838 24.75 -5.9 21.4 93 -6.8 19.8
17:50 1009 29.8 838 24.75 -6 21.2 93 -6.9 19.6
17:55 1009 29.8 838 24.75 -6.1 21 93 -7.1 19.2
18:00 1009 29.8 838 24.75 -6.2 20.9 93 -7.1 19.2
18:05 1009 29.8 838 24.75 -6.2 20.8 93 -7.2 19
18:10 1009 29.8 838 24.75 -6.4 20.6 93 -7.4 18.7
18:15 1009 29.8 838 24.75 -6.8 19.8 92 -7.9 17.9
18:20 1009 29.8 838 24.75 -7.1 19.1 92 -8.2 17.2
18:25 1009 29.8 838 24.75 -7.3 18.9 92 -8.3 17
18:30 1009 29.8 838 24.75 -7.4 18.8 92 -8.4 16.9
18:35 1009 29.8 839 24.78 -7.4 18.8 93 -8.3 17
18:40 1009 29.8 839 24.78 -7.3 18.9 93 -8.3 17.1
18:45 1009 29.8 839 24.78 -7.2 19 92 -8.3 17.1
18:50 1009 29.8 839 24.78 -7.4 18.7 92 -8.4 16.8
18:55 1009 29.8 839 24.78 -7.6 18.3 91 -8.8 16.2
19:00 1009 29.8 839 24.78 -8 17.5 92 -9.2 15.5
19:05 1009 29.8 839 24.78 -8.2 17.2 92 -9.4 15.1
19:10 1009 29.8 839 24.78 -8.7 16.4 91 -9.8 14.3
19:15 1010 29.83 839 24.78 -8.8 16.2 91 -10 14.1
19:20 1009 29.8 839 24.78 -8.8 16.1 91 -10 14
19:25 1009 29.8 839 24.78 -9 15.8 91 -10.3 13.5
19:30 1009 29.8 838 24.75 -9.1 15.6 91 -10.4 13.4
19:35 1009 29.8 838 24.75 -9.1 15.5 90 -10.5 13.2
19:40 1009 29.8 838 24.75 -9.2 15.4 90 -10.5 13
19:45 1009 29.8 838 24.75 -9.2 15.4 90 -10.6 13
19:50 1009 29.8 838 24.75 -9.3 15.3 90 -10.6 13
19:55 1009 29.8 838 24.75 -9.3 15.4 91 -10.5 13.1
20:00 1009 29.8 838 24.75 -9.1 15.6 91 -10.3 13.4
20:05 1009 29.8 838 24.75 -9.1 15.7 90 -10.4 13.3
20:10 1009 29.8 838 24.75 -9.2 15.4 91 -10.4 13.2
20:15 1009 29.8 838 24.75 -9 15.7 91 -10.3 13.5
20:20 1009 29.8 838 24.75 -8.8 16.2 91 -10 14
20:25 1009 29.8 838 24.75 -8.9 16 90 -10.2 13.6
20:30 1009 29.8 838 24.75 -8.9 15.9 90 -10.2 13.6
20:35 1009 29.8 838 24.75 -8.9 15.9 89 -10.4 13.3
20:40 1009 29.8 838 24.75 -8.8 16.2 92 -9.9 14.2
20:45 1009 29.8 838 24.75 -8.1 17.3 91 -9.4 15.1
20:50 1009 29.8 838 24.75 -7.7 18.1 90 -9.1 15.6
20:55 1009 29.8 838 24.75 -7.5 18.4 89 -9.1 15.6
21:00 1009 29.8 838 24.75 -7.3 18.8 89 -8.8 16.1
21:05 1009 29.8 838 24.75 -7.5 18.6 89 -8.9 15.9
21:10 1009 29.8 838 24.75 -7.7 18.2 89 -9.2 15.5
21:15 1009 29.8 838 24.75 -7.8 18 88 -9.4 15.1
21:20 1009 29.8 838 24.75 -8 17.5 89 -9.6 14.7
21:25 1009 29.8 838 24.75 -7.9 17.8 89 -9.4 15.1
21:30 1009 29.8 838 24.75 -7.3 18.8 88 -9 15.8
21:35 1009 29.8 838 24.75 -7 19.4 87 -8.8 16.2
21:40 1009 29.8 838 24.75 -6.5 20.3 83 -8.9 16
21:45 1009 29.8 838 24.75 -6.9 19.5 84 -9.2 15.5
21:50 1009 29.8 838 24.75 -7.2 19 86 -9.2 15.4
21:55 1009 29.8 838 24.75 -6.9 19.6 84 -9.1 15.5
22:00 1009 29.8 838 24.75 -6.4 20.5 80 -9.3 15.3
22:05 1009 29.8 838 24.75 -7.3 18.9 84 -9.6 14.8
22:10 1009 29.8 838 24.75 -7.1 19.3 84 -9.4 15.1
22:15 1009 29.8 838 24.75 -6.4 20.5 82 -9 15.8
22:20 1009 29.8 838 24.75 -6.7 19.9 82 -9.3 15.2
22:25 1009 29.8 838 24.75 -6.7 20 83 -9.1 15.6
22:30 1009 29.8 838 24.75 -6.3 20.6 81 -9 15.8
22:35 1009 29.8 838 24.75 -6.5 20.3 84 -8.9 16
22:40 1009 29.8 838 24.75 -6.5 20.4 84 -8.7 16.3
22:45 1009 29.8 838 24.75 -6.4 20.6 82 -9 15.9
22:50 1009 29.8 839 24.78 -6 21.2 81 -8.7 16.3
22:55 1009 29.8 839 24.78 -5.8 21.5 82 -8.5 16.7
23:00 1009 29.8 839 24.78 -6 21.3 81 -8.7 16.3
23:05 1009 29.8 839 24.78 -6 21.2 80 -8.8 16.1
23:10 1009 29.8 839 24.78 -6.1 21 81 -8.8 16.1
23:15 1009 29.8 839 24.78 -5.8 21.5 79 -8.9 16
23:20 1009 29.8 838 24.75 -5.6 22 80 -8.5 16.7
23:25 1009 29.8 839 24.78 -6.1 21.1 83 -8.6 16.6
23:30 1009 29.8 839 24.78 -6 21.3 80 -8.9 16
23:35 1009 29.8 839 24.78 -5.5 22.1 77 -8.9 16.1
23:40 1009 29.8 839 24.78 -5.1 22.8 75 -8.8 16.1
23:45 1010 29.83 839 24.78 -4.9 23.1 77 -8.3 17
23:50 1010 29.83 839 24.78 -5 23.1 78 -8.2 17.3
23:55 1010 29.83 839 24.78 -5.1 22.9 81 -7.8 17.9
24:00 1010 29.83 839 24.78 -5.6 21.9 84 -7.9 17.7